sensor_id;sensor_type;location;lat;lon;timestamp;P1;durP1;ratioP1;P2;durP2;ratioP2
13122;SDS011;6627;50.920;12.050;2023-03-14T00:01:19;3.10;;;1.63;;
13122;SDS011;6627;50.920;12.050;2023-03-14T00:03:47;1.50;;;1.40;;
13122;SDS011;6627;50.920;12.050;2023-03-14T00:06:15;2.43;;;1.43;;
13122;SDS011;6627;50.920;12.050;2023-03-14T00:08:44;2.80;;;1.20;;
13122;SDS011;6627;50.920;12.050;2023-03-14T00:11:13;1.57;;;0.90;;
13122;SDS011;6627;50.920;12.050;2023-03-14T00:13:43;1.00;;;0.90;;
13122;SDS011;6627;50.920;12.050;2023-03-14T00:16:12;1.20;;;1.10;;
13122;SDS011;6627;50.920;12.050;2023-03-14T00:18:40;1.67;;;1.00;;
13122;SDS011;6627;50.920;12.050;2023-03-14T00:21:10;1.63;;;0.90;;
13122;SDS011;6627;50.920;12.050;2023-03-14T00:23:39;1.10;;;0.97;;
13122;SDS011;6627;50.920;12.050;2023-03-14T00:26:09;2.40;;;0.90;;
13122;SDS011;6627;50.920;12.050;2023-03-14T00:28:38;2.00;;;1.10;;
13122;SDS011;6627;50.920;12.050;2023-03-14T00:31:09;1.17;;;1.07;;
13122;SDS011;6627;50.920;12.050;2023-03-14T00:33:39;1.47;;;1.00;;
13122;SDS011;6627;50.920;12.050;2023-03-14T00:36:07;1.00;;;0.90;;
13122;SDS011;6627;50.920;12.050;2023-03-14T00:38:38;0.93;;;0.90;;
13122;SDS011;6627;50.920;12.050;2023-03-14T00:41:09;1.20;;;1.07;;
13122;SDS011;6627;50.920;12.050;2023-03-14T00:43:37;1.43;;;0.90;;
13122;SDS011;6627;50.920;12.050;2023-03-14T00:46:05;1.13;;;1.00;;
13122;SDS011;6627;50.920;12.050;2023-03-14T00:48:35;1.23;;;0.90;;
13122;SDS011;6627;50.920;12.050;2023-03-14T00:51:04;1.67;;;0.90;;
13122;SDS011;6627;50.920;12.050;2023-03-14T00:53:35;1.23;;;1.00;;
13122;SDS011;6627;50.920;12.050;2023-03-14T00:56:04;0.93;;;0.87;;
13122;SDS011;6627;50.920;12.050;2023-03-14T00:58:34;0.80;;;0.80;;
13122;SDS011;6627;50.920;12.050;2023-03-14T01:01:05;1.83;;;0.87;;
13122;SDS011;6627;50.920;12.050;2023-03-14T01:03:35;0.60;;;0.60;;
13122;SDS011;6627;50.920;12.050;2023-03-14T01:06:09;0.63;;;0.63;;
13122;SDS011;6627;50.920;12.050;2023-03-14T01:08:39;2.37;;;0.80;;
13122;SDS011;6627;50.920;12.050;2023-03-14T01:11:07;3.70;;;0.77;;
13122;SDS011;6627;50.920;12.050;2023-03-14T01:13:37;0.73;;;0.73;;
13122;SDS011;6627;50.920;12.050;2023-03-14T01:16:06;1.67;;;1.00;;
13122;SDS011;6627;50.920;12.050;2023-03-14T01:18:38;0.80;;;0.80;;
13122;SDS011;6627;50.920;12.050;2023-03-14T01:21:09;1.00;;;0.90;;
13122;SDS011;6627;50.920;12.050;2023-03-14T01:23:39;0.80;;;0.80;;
13122;SDS011;6627;50.920;12.050;2023-03-14T01:26:08;1.87;;;0.90;;
13122;SDS011;6627;50.920;12.050;2023-03-14T01:28:36;1.53;;;0.70;;
13122;SDS011;6627;50.920;12.050;2023-03-14T01:31:04;0.93;;;0.80;;
13122;SDS011;6627;50.920;12.050;2023-03-14T01:33:34;1.47;;;0.90;;
13122;SDS011;6627;50.920;12.050;2023-03-14T01:36:03;1.00;;;0.90;;
13122;SDS011;6627;50.920;12.050;2023-03-14T01:38:33;1.00;;;0.90;;
13122;SDS011;6627;50.920;12.050;2023-03-14T01:41:03;2.30;;;0.90;;
13122;SDS011;6627;50.920;12.050;2023-03-14T01:43:31;0.80;;;0.80;;
13122;SDS011;6627;50.920;12.050;2023-03-14T01:48:51;1.00;;;0.70;;
13122;SDS011;6627;50.920;12.050;2023-03-14T01:51:27;0.90;;;0.70;;
13122;SDS011;6627;50.920;12.050;2023-03-14T01:54:06;1.50;;;1.00;;
13122;SDS011;6627;50.920;12.050;2023-03-14T01:56:43;0.80;;;0.80;;
13122;SDS011;6627;50.920;12.050;2023-03-14T01:59:15;0.93;;;0.70;;
13122;SDS011;6627;50.920;12.050;2023-03-14T02:01:43;1.17;;;0.80;;
13122;SDS011;6627;50.920;12.050;2023-03-14T02:04:13;1.00;;;0.73;;
13122;SDS011;6627;50.920;12.050;2023-03-14T02:06:49;2.57;;;0.83;;
13122;SDS011;6627;50.920;12.050;2023-03-14T02:09:22;0.90;;;0.70;;
13122;SDS011;6627;50.920;12.050;2023-03-14T02:11:51;3.10;;;1.00;;
13122;SDS011;6627;50.920;12.050;2023-03-14T02:14:26;0.80;;;0.80;;
13122;SDS011;6627;50.920;12.050;2023-03-14T02:16:59;1.03;;;0.90;;
13122;SDS011;6627;50.920;12.050;2023-03-14T02:19:39;1.40;;;0.90;;
13122;SDS011;6627;50.920;12.050;2023-03-14T02:22:21;3.20;;;0.80;;
13122;SDS011;6627;50.920;12.050;2023-03-14T02:24:50;0.80;;;0.80;;
13122;SDS011;6627;50.920;12.050;2023-03-14T02:27:35;1.23;;;0.93;;
13122;SDS011;6627;50.920;12.050;2023-03-14T02:30:05;1.10;;;0.80;;
13122;SDS011;6627;50.920;12.050;2023-03-14T02:32:37;1.30;;;0.73;;
13122;SDS011;6627;50.920;12.050;2023-03-14T02:35:09;1.13;;;0.90;;
13122;SDS011;6627;50.920;12.050;2023-03-14T02:37:43;1.43;;;0.90;;
13122;SDS011;6627;50.920;12.050;2023-03-14T02:40:18;1.40;;;0.90;;
13122;SDS011;6627;50.920;12.050;2023-03-14T02:42:47;2.00;;;0.80;;
13122;SDS011;6627;50.920;12.050;2023-03-14T02:45:33;1.63;;;0.80;;
13122;SDS011;6627;50.920;12.050;2023-03-14T02:48:06;1.50;;;0.70;;
13122;SDS011;6627;50.920;12.050;2023-03-14T02:50:40;6.90;;;1.00;;
13122;SDS011;6627;50.920;12.050;2023-03-14T02:53:10;1.53;;;0.93;;
13122;SDS011;6627;50.920;12.050;2023-03-14T02:55:44;1.83;;;0.73;;
13122;SDS011;6627;50.920;12.050;2023-03-14T02:58:14;2.43;;;0.90;;
13122;SDS011;6627;50.920;12.050;2023-03-14T03:00:42;3.13;;;0.80;;
13122;SDS011;6627;50.920;12.050;2023-03-14T03:03:10;1.23;;;0.90;;
13122;SDS011;6627;50.920;12.050;2023-03-14T03:05:37;1.73;;;0.80;;
13122;SDS011;6627;50.920;12.050;2023-03-14T03:08:05;2.23;;;1.00;;
13122;SDS011;6627;50.920;12.050;2023-03-14T03:10:32;1.53;;;1.00;;
13122;SDS011;6627;50.920;12.050;2023-03-14T03:13:00;2.80;;;1.00;;
13122;SDS011;6627;50.920;12.050;2023-03-14T03:15:28;0.90;;;0.87;;
13122;SDS011;6627;50.920;12.050;2023-03-14T03:17:56;1.40;;;0.90;;
13122;SDS011;6627;50.920;12.050;2023-03-14T03:20:23;2.27;;;0.90;;
13122;SDS011;6627;50.920;12.050;2023-03-14T03:22:50;2.17;;;0.87;;
13122;SDS011;6627;50.920;12.050;2023-03-14T03:25:18;3.13;;;0.90;;
13122;SDS011;6627;50.920;12.050;2023-03-14T03:27:45;2.50;;;0.80;;
13122;SDS011;6627;50.920;12.050;2023-03-14T03:30:12;4.07;;;1.07;;
13122;SDS011;6627;50.920;12.050;2023-03-14T03:32:42;3.40;;;1.00;;
13122;SDS011;6627;50.920;12.050;2023-03-14T03:35:09;2.87;;;1.00;;
13122;SDS011;6627;50.920;12.050;2023-03-14T03:37:37;3.97;;;1.10;;
13122;SDS011;6627;50.920;12.050;2023-03-14T03:40:05;4.17;;;1.03;;
13122;SDS011;6627;50.920;12.050;2023-03-14T03:42:34;2.57;;;1.00;;
13122;SDS011;6627;50.920;12.050;2023-03-14T03:45:02;2.37;;;1.00;;
13122;SDS011;6627;50.920;12.050;2023-03-14T03:47:30;5.87;;;1.20;;
13122;SDS011;6627;50.920;12.050;2023-03-14T03:49:59;6.90;;;1.30;;
13122;SDS011;6627;50.920;12.050;2023-03-14T03:52:26;2.90;;;1.10;;
13122;SDS011;6627;50.920;12.050;2023-03-14T03:54:54;3.43;;;1.40;;
13122;SDS011;6627;50.920;12.050;2023-03-14T03:57:21;4.70;;;1.27;;
13122;SDS011;6627;50.920;12.050;2023-03-14T03:59:48;3.13;;;1.20;;
13122;SDS011;6627;50.920;12.050;2023-03-14T04:02:15;6.23;;;1.40;;
13122;SDS011;6627;50.920;12.050;2023-03-14T04:04:43;1.93;;;1.00;;
13122;SDS011;6627;50.920;12.050;2023-03-14T04:07:11;4.60;;;1.57;;
13122;SDS011;6627;50.920;12.050;2023-03-14T04:09:39;2.70;;;1.20;;
13122;SDS011;6627;50.920;12.050;2023-03-14T04:12:06;4.37;;;1.30;;
13122;SDS011;6627;50.920;12.050;2023-03-14T04:14:33;3.57;;;1.20;;
13122;SDS011;6627;50.920;12.050;2023-03-14T04:17:00;4.17;;;1.23;;
13122;SDS011;6627;50.920;12.050;2023-03-14T04:19:27;3.47;;;1.17;;
13122;SDS011;6627;50.920;12.050;2023-03-14T04:21:55;1.97;;;1.20;;
13122;SDS011;6627;50.920;12.050;2023-03-14T04:24:23;3.00;;;1.10;;
13122;SDS011;6627;50.920;12.050;2023-03-14T04:26:50;2.90;;;1.30;;
13122;SDS011;6627;50.920;12.050;2023-03-14T04:29:18;3.83;;;1.23;;
13122;SDS011;6627;50.920;12.050;2023-03-14T04:31:46;3.20;;;0.87;;
13122;SDS011;6627;50.920;12.050;2023-03-14T04:34:13;3.13;;;1.60;;
13122;SDS011;6627;50.920;12.050;2023-03-14T04:36:40;4.03;;;1.50;;
13122;SDS011;6627;50.920;12.050;2023-03-14T04:39:07;5.73;;;1.47;;
13122;SDS011;6627;50.920;12.050;2023-03-14T04:41:36;6.27;;;3.03;;
13122;SDS011;6627;50.920;12.050;2023-03-14T04:44:03;3.23;;;1.80;;
13122;SDS011;6627;50.920;12.050;2023-03-14T04:46:30;3.97;;;1.50;;
13122;SDS011;6627;50.920;12.050;2023-03-14T04:48:57;5.67;;;1.70;;
13122;SDS011;6627;50.920;12.050;2023-03-14T04:51:25;4.40;;;1.50;;
13122;SDS011;6627;50.920;12.050;2023-03-14T04:53:52;4.80;;;2.00;;
13122;SDS011;6627;50.920;12.050;2023-03-14T04:56:20;3.80;;;1.87;;
13122;SDS011;6627;50.920;12.050;2023-03-14T04:58:49;5.03;;;1.90;;
13122;SDS011;6627;50.920;12.050;2023-03-14T05:01:16;14.00;;;7.50;;
13122;SDS011;6627;50.920;12.050;2023-03-14T05:03:44;6.30;;;2.47;;
13122;SDS011;6627;50.920;12.050;2023-03-14T05:06:11;4.83;;;2.10;;
13122;SDS011;6627;50.920;12.050;2023-03-14T05:08:39;4.43;;;1.60;;
13122;SDS011;6627;50.920;12.050;2023-03-14T05:11:06;3.90;;;2.03;;
13122;SDS011;6627;50.920;12.050;2023-03-14T05:13:36;3.00;;;1.70;;
13122;SDS011;6627;50.920;12.050;2023-03-14T05:16:06;5.63;;;1.70;;
13122;SDS011;6627;50.920;12.050;2023-03-14T05:18:35;4.43;;;1.63;;
13122;SDS011;6627;50.920;12.050;2023-03-14T05:21:03;2.90;;;1.27;;
13122;SDS011;6627;50.920;12.050;2023-03-14T05:23:31;5.60;;;1.60;;
13122;SDS011;6627;50.920;12.050;2023-03-14T05:25:58;5.73;;;2.30;;
13122;SDS011;6627;50.920;12.050;2023-03-14T05:28:25;4.47;;;1.93;;
13122;SDS011;6627;50.920;12.050;2023-03-14T05:30:52;3.03;;;1.40;;
13122;SDS011;6627;50.920;12.050;2023-03-14T05:33:20;2.67;;;1.73;;
13122;SDS011;6627;50.920;12.050;2023-03-14T05:35:48;3.83;;;1.50;;
13122;SDS011;6627;50.920;12.050;2023-03-14T05:38:15;4.07;;;1.60;;
13122;SDS011;6627;50.920;12.050;2023-03-14T05:40:42;5.10;;;1.40;;
13122;SDS011;6627;50.920;12.050;2023-03-14T05:43:11;2.43;;;1.30;;
13122;SDS011;6627;50.920;12.050;2023-03-14T05:45:38;6.23;;;1.40;;
13122;SDS011;6627;50.920;12.050;2023-03-14T05:48:06;3.73;;;1.90;;
13122;SDS011;6627;50.920;12.050;2023-03-14T05:50:35;3.57;;;1.03;;
13122;SDS011;6627;50.920;12.050;2023-03-14T05:53:02;3.67;;;1.33;;
13122;SDS011;6627;50.920;12.050;2023-03-14T05:55:29;2.60;;;1.20;;
13122;SDS011;6627;50.920;12.050;2023-03-14T05:57:57;2.13;;;1.20;;
13122;SDS011;6627;50.920;12.050;2023-03-14T06:00:26;2.23;;;1.30;;
13122;SDS011;6627;50.920;12.050;2023-03-14T06:02:53;3.33;;;1.20;;
13122;SDS011;6627;50.920;12.050;2023-03-14T06:05:21;2.90;;;1.20;;
13122;SDS011;6627;50.920;12.050;2023-03-14T06:07:49;1.87;;;1.10;;
13122;SDS011;6627;50.920;12.050;2023-03-14T06:10:16;3.47;;;1.30;;
13122;SDS011;6627;50.920;12.050;2023-03-14T06:12:43;3.20;;;1.20;;
13122;SDS011;6627;50.920;12.050;2023-03-14T06:15:10;4.53;;;1.17;;
13122;SDS011;6627;50.920;12.050;2023-03-14T06:17:37;6.60;;;3.33;;
13122;SDS011;6627;50.920;12.050;2023-03-14T06:20:05;9.27;;;6.70;;
13122;SDS011;6627;50.920;12.050;2023-03-14T06:22:33;3.47;;;1.30;;
13122;SDS011;6627;50.920;12.050;2023-03-14T06:25:02;2.63;;;1.53;;
13122;SDS011;6627;50.920;12.050;2023-03-14T06:27:30;6.27;;;4.30;;
13122;SDS011;6627;50.920;12.050;2023-03-14T06:29:57;7.17;;;4.07;;
13122;SDS011;6627;50.920;12.050;2023-03-14T06:32:24;3.73;;;2.13;;
13122;SDS011;6627;50.920;12.050;2023-03-14T06:34:51;3.33;;;2.33;;
13122;SDS011;6627;50.920;12.050;2023-03-14T06:37:19;4.20;;;1.53;;
13122;SDS011;6627;50.920;12.050;2023-03-14T06:39:47;7.63;;;2.77;;
13122;SDS011;6627;50.920;12.050;2023-03-14T06:42:15;5.40;;;2.93;;
13122;SDS011;6627;50.920;12.050;2023-03-14T06:44:42;3.77;;;2.37;;
13122;SDS011;6627;50.920;12.050;2023-03-14T06:47:09;4.13;;;2.40;;
13122;SDS011;6627;50.920;12.050;2023-03-14T06:49:36;6.07;;;1.60;;
13122;SDS011;6627;50.920;12.050;2023-03-14T06:52:03;6.17;;;3.20;;
13122;SDS011;6627;50.920;12.050;2023-03-14T06:54:31;7.57;;;3.70;;
13122;SDS011;6627;50.920;12.050;2023-03-14T06:56:58;4.30;;;1.90;;
13122;SDS011;6627;50.920;12.050;2023-03-14T06:59:26;2.83;;;1.70;;
13122;SDS011;6627;50.920;12.050;2023-03-14T07:01:55;1.87;;;1.20;;
13122;SDS011;6627;50.920;12.050;2023-03-14T07:04:22;4.97;;;1.50;;
13122;SDS011;6627;50.920;12.050;2023-03-14T07:06:49;3.93;;;1.47;;
13122;SDS011;6627;50.920;12.050;2023-03-14T07:09:16;6.80;;;3.70;;
13122;SDS011;6627;50.920;12.050;2023-03-14T07:11:43;4.33;;;2.10;;
13122;SDS011;6627;50.920;12.050;2023-03-14T07:14:11;3.47;;;1.90;;
13122;SDS011;6627;50.920;12.050;2023-03-14T07:16:43;3.47;;;1.60;;
13122;SDS011;6627;50.920;12.050;2023-03-14T07:19:10;5.60;;;1.20;;
13122;SDS011;6627;50.920;12.050;2023-03-14T07:21:38;1.90;;;1.70;;
13122;SDS011;6627;50.920;12.050;2023-03-14T07:24:05;2.10;;;1.40;;
13122;SDS011;6627;50.920;12.050;2023-03-14T07:26:33;3.23;;;1.23;;
13122;SDS011;6627;50.920;12.050;2023-03-14T07:29:01;2.47;;;1.03;;
13122;SDS011;6627;50.920;12.050;2023-03-14T07:31:29;1.60;;;1.00;;
13122;SDS011;6627;50.920;12.050;2023-03-14T07:34:04;2.13;;;1.10;;
13122;SDS011;6627;50.920;12.050;2023-03-14T07:36:31;2.63;;;1.37;;
13122;SDS011;6627;50.920;12.050;2023-03-14T07:38:58;4.70;;;1.97;;
13122;SDS011;6627;50.920;12.050;2023-03-14T07:41:25;2.73;;;1.67;;
13122;SDS011;6627;50.920;12.050;2023-03-14T07:43:53;3.47;;;1.40;;
13122;SDS011;6627;50.920;12.050;2023-03-14T07:46:20;4.13;;;1.03;;
13122;SDS011;6627;50.920;12.050;2023-03-14T07:48:48;1.50;;;0.90;;
13122;SDS011;6627;50.920;12.050;2023-03-14T07:51:16;3.90;;;1.20;;
13122;SDS011;6627;50.920;12.050;2023-03-14T07:53:43;2.60;;;1.03;;
13122;SDS011;6627;50.920;12.050;2023-03-14T07:56:11;3.00;;;1.10;;
13122;SDS011;6627;50.920;12.050;2023-03-14T07:58:38;2.20;;;1.30;;
13122;SDS011;6627;50.920;12.050;2023-03-14T08:01:05;2.73;;;1.20;;
13122;SDS011;6627;50.920;12.050;2023-03-14T08:03:32;3.57;;;1.10;;
13122;SDS011;6627;50.920;12.050;2023-03-14T08:06:00;2.93;;;1.23;;
13122;SDS011;6627;50.920;12.050;2023-03-14T08:08:28;2.67;;;1.37;;
13122;SDS011;6627;50.920;12.050;2023-03-14T08:10:55;2.10;;;1.00;;
13122;SDS011;6627;50.920;12.050;2023-03-14T08:13:28;1.53;;;1.10;;
13122;SDS011;6627;50.920;12.050;2023-03-14T08:15:55;2.93;;;1.10;;
13122;SDS011;6627;50.920;12.050;2023-03-14T08:18:22;2.97;;;0.90;;
13122;SDS011;6627;50.920;12.050;2023-03-14T08:20:49;2.83;;;1.20;;
13122;SDS011;6627;50.920;12.050;2023-03-14T08:23:16;3.50;;;1.13;;
13122;SDS011;6627;50.920;12.050;2023-03-14T08:25:45;5.53;;;1.03;;
13122;SDS011;6627;50.920;12.050;2023-03-14T08:28:16;3.53;;;1.30;;
13122;SDS011;6627;50.920;12.050;2023-03-14T08:30:43;2.10;;;1.20;;
13122;SDS011;6627;50.920;12.050;2023-03-14T08:33:11;2.33;;;1.10;;
13122;SDS011;6627;50.920;12.050;2023-03-14T08:35:38;2.43;;;1.00;;
13122;SDS011;6627;50.920;12.050;2023-03-14T08:38:05;2.23;;;1.00;;
13122;SDS011;6627;50.920;12.050;2023-03-14T08:40:32;5.43;;;1.30;;
13122;SDS011;6627;50.920;12.050;2023-03-14T08:43:01;4.07;;;2.10;;
13122;SDS011;6627;50.920;12.050;2023-03-14T08:45:28;2.40;;;1.67;;
13122;SDS011;6627;50.920;12.050;2023-03-14T08:47:55;3.87;;;2.10;;
13122;SDS011;6627;50.920;12.050;2023-03-14T08:50:24;5.30;;;3.03;;
13122;SDS011;6627;50.920;12.050;2023-03-14T08:52:51;3.13;;;1.30;;
13122;SDS011;6627;50.920;12.050;2023-03-14T08:55:19;3.70;;;1.50;;
13122;SDS011;6627;50.920;12.050;2023-03-14T08:57:46;4.53;;;2.50;;
13122;SDS011;6627;50.920;12.050;2023-03-14T09:00:15;2.50;;;1.47;;
13122;SDS011;6627;50.920;12.050;2023-03-14T09:02:43;1.80;;;1.40;;
13122;SDS011;6627;50.920;12.050;2023-03-14T09:05:11;2.57;;;1.50;;
13122;SDS011;6627;50.920;12.050;2023-03-14T09:07:40;2.00;;;1.10;;
13122;SDS011;6627;50.920;12.050;2023-03-14T09:10:08;4.20;;;1.20;;
13122;SDS011;6627;50.920;12.050;2023-03-14T09:12:36;2.43;;;1.30;;
13122;SDS011;6627;50.920;12.050;2023-03-14T09:15:04;2.90;;;1.20;;
13122;SDS011;6627;50.920;12.050;2023-03-14T09:17:33;3.03;;;1.17;;
13122;SDS011;6627;50.920;12.050;2023-03-14T09:20:01;2.70;;;1.20;;
13122;SDS011;6627;50.920;12.050;2023-03-14T09:22:32;2.80;;;1.10;;
13122;SDS011;6627;50.920;12.050;2023-03-14T09:25:01;1.60;;;0.93;;
13122;SDS011;6627;50.920;12.050;2023-03-14T09:27:28;1.07;;;0.73;;
13122;SDS011;6627;50.920;12.050;2023-03-14T09:29:55;2.33;;;1.20;;
13122;SDS011;6627;50.920;12.050;2023-03-14T09:32:22;1.60;;;0.90;;
13122;SDS011;6627;50.920;12.050;2023-03-14T09:34:51;1.20;;;0.97;;
13122;SDS011;6627;50.920;12.050;2023-03-14T09:37:18;2.50;;;1.20;;
13122;SDS011;6627;50.920;12.050;2023-03-14T09:39:46;2.23;;;1.13;;
13122;SDS011;6627;50.920;12.050;2023-03-14T09:42:14;2.13;;;1.00;;
13122;SDS011;6627;50.920;12.050;2023-03-14T09:44:50;1.63;;;0.90;;
13122;SDS011;6627;50.920;12.050;2023-03-14T09:47:22;2.20;;;1.07;;
13122;SDS011;6627;50.920;12.050;2023-03-14T09:49:52;2.83;;;0.90;;
13122;SDS011;6627;50.920;12.050;2023-03-14T09:52:21;2.07;;;0.90;;
13122;SDS011;6627;50.920;12.050;2023-03-14T09:54:54;1.73;;;0.80;;
13122;SDS011;6627;50.920;12.050;2023-03-14T09:57:26;1.07;;;0.63;;
13122;SDS011;6627;50.920;12.050;2023-03-14T10:00:00;2.60;;;0.70;;
13122;SDS011;6627;50.920;12.050;2023-03-14T10:02:38;1.43;;;0.73;;
13122;SDS011;6627;50.920;12.050;2023-03-14T10:05:15;2.50;;;0.90;;
13122;SDS011;6627;50.920;12.050;2023-03-14T10:07:44;1.17;;;0.67;;
13122;SDS011;6627;50.920;12.050;2023-03-14T10:10:12;5.10;;;0.70;;
13122;SDS011;6627;50.920;12.050;2023-03-14T10:12:45;0.97;;;0.60;;
13122;SDS011;6627;50.920;12.050;2023-03-14T10:15:22;1.60;;;1.30;;
13122;SDS011;6627;50.920;12.050;2023-03-14T10:17:53;2.20;;;1.00;;
13122;SDS011;6627;50.920;12.050;2023-03-14T10:20:30;2.57;;;1.50;;
13122;SDS011;6627;50.920;12.050;2023-03-14T10:23:01;1.50;;;0.90;;
13122;SDS011;6627;50.920;12.050;2023-03-14T10:25:33;2.07;;;0.97;;
13122;SDS011;6627;50.920;12.050;2023-03-14T10:28:03;0.90;;;0.60;;
13122;SDS011;6627;50.920;12.050;2023-03-14T10:30:38;2.60;;;0.80;;
13122;SDS011;6627;50.920;12.050;2023-03-14T10:33:11;1.10;;;1.00;;
13122;SDS011;6627;50.920;12.050;2023-03-14T10:35:53;1.97;;;0.60;;
13122;SDS011;6627;50.920;12.050;2023-03-14T10:38:22;2.73;;;0.60;;
13122;SDS011;6627;50.920;12.050;2023-03-14T10:40:53;2.97;;;0.60;;
13122;SDS011;6627;50.920;12.050;2023-03-14T10:43:23;1.43;;;0.80;;
13122;SDS011;6627;50.920;12.050;2023-03-14T10:45:54;2.23;;;0.70;;
13122;SDS011;6627;50.920;12.050;2023-03-14T10:48:24;2.37;;;0.87;;
13122;SDS011;6627;50.920;12.050;2023-03-14T10:51:03;1.53;;;0.80;;
13122;SDS011;6627;50.920;12.050;2023-03-14T10:53:34;0.43;;;0.43;;
13122;SDS011;6627;50.920;12.050;2023-03-14T10:56:11;1.83;;;0.90;;
13122;SDS011;6627;50.920;12.050;2023-03-14T10:58:41;0.50;;;0.50;;
13122;SDS011;6627;50.920;12.050;2023-03-14T11:01:33;1.40;;;0.80;;
13122;SDS011;6627;50.920;12.050;2023-03-14T11:04:08;2.53;;;0.50;;
13122;SDS011;6627;50.920;12.050;2023-03-14T11:06:54;1.13;;;0.67;;
13122;SDS011;6627;50.920;12.050;2023-03-14T11:09:29;0.67;;;0.50;;
13122;SDS011;6627;50.920;12.050;2023-03-14T11:12:11;1.43;;;0.67;;
13122;SDS011;6627;50.920;12.050;2023-03-14T11:14:57;1.70;;;0.80;;
13122;SDS011;6627;50.920;12.050;2023-03-14T11:17:34;0.57;;;0.57;;
13122;SDS011;6627;50.920;12.050;2023-03-14T11:20:32;0.63;;;0.50;;
13122;SDS011;6627;50.920;12.050;2023-03-14T11:23:12;1.07;;;0.80;;
13122;SDS011;6627;50.920;12.050;2023-03-14T11:25:46;1.27;;;0.70;;
13122;SDS011;6627;50.920;12.050;2023-03-14T11:28:23;1.00;;;0.70;;
13122;SDS011;6627;50.920;12.050;2023-03-14T11:30:59;0.63;;;0.50;;
13122;SDS011;6627;50.920;12.050;2023-03-14T11:33:38;1.07;;;0.50;;
13122;SDS011;6627;50.920;12.050;2023-03-14T11:36:17;1.27;;;0.50;;
13122;SDS011;6627;50.920;12.050;2023-03-14T11:38:54;0.73;;;0.53;;
13122;SDS011;6627;50.920;12.050;2023-03-14T11:41:25;0.90;;;0.60;;
13122;SDS011;6627;50.920;12.050;2023-03-14T11:43:59;1.30;;;0.70;;
13122;SDS011;6627;50.920;12.050;2023-03-14T11:46:38;0.67;;;0.60;;
13122;SDS011;6627;50.920;12.050;2023-03-14T11:49:13;0.93;;;0.60;;
13122;SDS011;6627;50.920;12.050;2023-03-14T11:51:57;0.37;;;0.37;;
13122;SDS011;6627;50.920;12.050;2023-03-14T11:54:33;1.67;;;0.50;;
13122;SDS011;6627;50.920;12.050;2023-03-14T11:57:10;1.70;;;0.60;;
13122;SDS011;6627;50.920;12.050;2023-03-14T11:59:45;1.90;;;0.60;;
13122;SDS011;6627;50.920;12.050;2023-03-14T12:02:21;1.50;;;0.70;;
13122;SDS011;6627;50.920;12.050;2023-03-14T12:05:01;1.20;;;0.60;;
13122;SDS011;6627;50.920;12.050;2023-03-14T12:08:10;0.87;;;0.67;;
13122;SDS011;6627;50.920;12.050;2023-03-14T12:10:58;3.47;;;0.77;;
13122;SDS011;6627;50.920;12.050;2023-03-14T12:13:29;1.20;;;0.63;;
13122;SDS011;6627;50.920;12.050;2023-03-14T12:16:04;2.70;;;0.70;;
13122;SDS011;6627;50.920;12.050;2023-03-14T12:18:53;0.60;;;0.60;;
13122;SDS011;6627;50.920;12.050;2023-03-14T12:21:20;1.20;;;0.60;;
13122;SDS011;6627;50.920;12.050;2023-03-14T12:23:50;0.57;;;0.50;;
13122;SDS011;6627;50.920;12.050;2023-03-14T12:26:22;0.90;;;0.63;;
13122;SDS011;6627;50.920;12.050;2023-03-14T12:28:52;1.90;;;0.60;;
13122;SDS011;6627;50.920;12.050;2023-03-14T12:31:42;0.93;;;0.50;;
13122;SDS011;6627;50.920;12.050;2023-03-14T12:37:03;1.53;;;0.80;;
13122;SDS011;6627;50.920;12.050;2023-03-14T12:39:47;0.40;;;0.40;;
13122;SDS011;6627;50.920;12.050;2023-03-14T12:42:40;0.50;;;0.50;;
13122;SDS011;6627;50.920;12.050;2023-03-14T12:45:24;0.47;;;0.47;;
13122;SDS011;6627;50.920;12.050;2023-03-14T12:48:03;1.67;;;0.80;;
13122;SDS011;6627;50.920;12.050;2023-03-14T12:50:38;1.80;;;0.77;;
13122;SDS011;6627;50.920;12.050;2023-03-14T12:56:17;1.17;;;0.63;;
13122;SDS011;6627;50.920;12.050;2023-03-14T12:58:57;0.70;;;0.60;;
13122;SDS011;6627;50.920;12.050;2023-03-14T13:01:58;0.90;;;0.53;;
13122;SDS011;6627;50.920;12.050;2023-03-14T13:04:31;0.60;;;0.50;;
13122;SDS011;6627;50.920;12.050;2023-03-14T13:07:03;1.23;;;0.60;;
13122;SDS011;6627;50.920;12.050;2023-03-14T13:12:32;0.93;;;0.70;;
13122;SDS011;6627;50.920;12.050;2023-03-14T13:15:21;0.40;;;0.40;;
13122;SDS011;6627;50.920;12.050;2023-03-14T13:17:54;0.70;;;0.63;;
13122;SDS011;6627;50.920;12.050;2023-03-14T13:20:28;1.30;;;0.80;;
13122;SDS011;6627;50.920;12.050;2023-03-14T13:23:00;1.17;;;0.70;;
13122;SDS011;6627;50.920;12.050;2023-03-14T13:25:31;1.30;;;0.70;;
13122;SDS011;6627;50.920;12.050;2023-03-14T13:28:01;1.17;;;0.60;;
13122;SDS011;6627;50.920;12.050;2023-03-14T13:30:40;0.80;;;0.70;;
13122;SDS011;6627;50.920;12.050;2023-03-14T13:33:13;0.43;;;0.40;;
13122;SDS011;6627;50.920;12.050;2023-03-14T13:35:44;1.13;;;0.50;;
13122;SDS011;6627;50.920;12.050;2023-03-14T13:38:15;2.33;;;0.73;;
13122;SDS011;6627;50.920;12.050;2023-03-14T13:40:47;0.77;;;0.60;;
13122;SDS011;6627;50.920;12.050;2023-03-14T13:43:17;0.83;;;0.40;;
13122;SDS011;6627;50.920;12.050;2023-03-14T13:45:52;2.53;;;0.80;;
13122;SDS011;6627;50.920;12.050;2023-03-14T13:48:25;0.60;;;0.40;;
13122;SDS011;6627;50.920;12.050;2023-03-14T13:50:56;0.33;;;0.33;;
13122;SDS011;6627;50.920;12.050;2023-03-14T13:53:29;1.30;;;0.60;;
13122;SDS011;6627;50.920;12.050;2023-03-14T13:56:00;0.73;;;0.40;;
13122;SDS011;6627;50.920;12.050;2023-03-14T13:58:30;0.50;;;0.50;;
13122;SDS011;6627;50.920;12.050;2023-03-14T14:01:06;0.63;;;0.50;;
13122;SDS011;6627;50.920;12.050;2023-03-14T14:03:52;1.47;;;0.60;;
13122;SDS011;6627;50.920;12.050;2023-03-14T14:06:26;0.40;;;0.40;;
13122;SDS011;6627;50.920;12.050;2023-03-14T14:08:59;1.77;;;0.80;;
13122;SDS011;6627;50.920;12.050;2023-03-14T14:11:35;0.30;;;0.30;;
13122;SDS011;6627;50.920;12.050;2023-03-14T14:14:10;0.90;;;0.50;;
13122;SDS011;6627;50.920;12.050;2023-03-14T14:16:45;0.67;;;0.50;;
13122;SDS011;6627;50.920;12.050;2023-03-14T14:19:15;0.60;;;0.40;;
13122;SDS011;6627;50.920;12.050;2023-03-14T14:21:45;1.37;;;0.50;;
13122;SDS011;6627;50.920;12.050;2023-03-14T14:24:13;1.33;;;0.60;;
13122;SDS011;6627;50.920;12.050;2023-03-14T14:26:46;0.50;;;0.50;;
13122;SDS011;6627;50.920;12.050;2023-03-14T14:29:21;1.20;;;0.60;;
13122;SDS011;6627;50.920;12.050;2023-03-14T14:32:10;0.70;;;0.43;;
13122;SDS011;6627;50.920;12.050;2023-03-14T14:34:41;0.20;;;0.20;;
13122;SDS011;6627;50.920;12.050;2023-03-14T14:37:17;0.47;;;0.30;;
13122;SDS011;6627;50.920;12.050;2023-03-14T14:39:47;0.87;;;0.60;;
13122;SDS011;6627;50.920;12.050;2023-03-14T14:42:16;2.00;;;0.40;;
13122;SDS011;6627;50.920;12.050;2023-03-14T14:44:47;0.40;;;0.40;;
13122;SDS011;6627;50.920;12.050;2023-03-14T14:47:19;0.43;;;0.43;;
13122;SDS011;6627;50.920;12.050;2023-03-14T14:49:50;0.20;;;0.20;;
13122;SDS011;6627;50.920;12.050;2023-03-14T14:52:20;0.67;;;0.30;;
13122;SDS011;6627;50.920;12.050;2023-03-14T14:54:59;0.37;;;0.37;;
13122;SDS011;6627;50.920;12.050;2023-03-14T14:57:30;0.63;;;0.40;;
13122;SDS011;6627;50.920;12.050;2023-03-14T15:00:04;0.30;;;0.30;;
13122;SDS011;6627;50.920;12.050;2023-03-14T15:02:39;0.73;;;0.37;;
13122;SDS011;6627;50.920;12.050;2023-03-14T15:05:12;0.40;;;0.40;;
13122;SDS011;6627;50.920;12.050;2023-03-14T15:07:41;0.93;;;0.70;;
13122;SDS011;6627;50.920;12.050;2023-03-14T15:10:09;4.13;;;0.90;;
13122;SDS011;6627;50.920;12.050;2023-03-14T15:12:38;0.87;;;0.60;;
13122;SDS011;6627;50.920;12.050;2023-03-14T15:15:06;0.80;;;0.60;;
13122;SDS011;6627;50.920;12.050;2023-03-14T15:17:35;3.00;;;0.93;;
13122;SDS011;6627;50.920;12.050;2023-03-14T15:20:06;3.30;;;1.20;;
13122;SDS011;6627;50.920;12.050;2023-03-14T15:22:39;2.23;;;1.00;;